Terminal Aerodrome Forecast
Issued by NWS

Current Version | Previous Version | Graphics & Text | Print | Product List | Glossary On
Versions: 1 2 3 4 5 6 7 8 9 10 11 12 13 14 15 16 17 18 19 20 21 22 23 24 25 26 27 28 29 30 31 32 33
000
FTUS41 KRNK 120520
TAFLWB
TAF
KLWB 120520Z 1206/1306 00000KT P6SM BKN110
     FM121600 20004KT P6SM -SN SCT020 OVC050
     FM121800 24006KT 4SM -SN OVC020
     FM130000 27008KT P6SM -SHSN OVC025
     FM130400 29011G22KT P6SM -SHSN BKN020=

USA.gov is the U.S. government's official web portal to all federal, state and local government web resources and services.